Station: EHBK - 06/02/2023 03:25Z (il y a 26 minutes)
EHBK 060325Z AUTO 04004KT 010V070 1100 R03/0900D BR BKN000 OVC001 01/01 Q1041
Vent du 040º - 4 kt (vent de direction variable de 010º à 070º)
Visibilité: 1100 m
=> R03/0900D (brume)
Ciel 75% couvert à 000 pieds - Ciel couvert à 100 pieds
Température: +01ºC - Point de rosée: +01ºC - QNH: 1041 hPa